aviador You're here:

LFOA Decoded Metar

AVORD in FRANCE
Report Time2017-08-21 23:30:00
UTC Time2017-08-21 23:56:36
Flight Rules vfr VFR
Wind070° at 08 kt
W.Decomp.*RWY 06: 7.9 kt HW 1.4 kt RCW
W.Rank070° ranks 19
Current wind is above 070° avg. (5.6)
Visibility9999 m
Phenomena:N/A
Clouds:N/A
Expected CloudBase > 1,200 ft AGL from Temp-Dew spread
CeilingNone
Temp17°C (ISA +3)
Dew Point14°C (83% RH)
AAT15.4°C
QNH1020 hPa
Density Alt938 ft
Elevation587 ft
Report Wrong Elevation
Raw Report
LFOA 212330Z AUTO 07008KT CAVOK 17/14 Q1020=

Extra information for LFOA:More info

Metar Taf Metar & Taf Last 4 Metars F.Rules Stats Wind Profile Meteogram Temp Stats Airport Information Weather charts Add Link Nearby VenuesMetar ALERT Operation Metar Decoded Social comments